sensor_id;sensor_type;location;lat;lon;timestamp;temperature;humidity
52413;DHT22;38339;53.234;6.578;2022-11-13T00:02:10;7.40;99.90
52413;DHT22;38339;53.234;6.578;2022-11-13T00:04:36;7.40;99.90
52413;DHT22;38339;53.234;6.578;2022-11-13T00:07:02;7.40;99.90
52413;DHT22;38339;53.234;6.578;2022-11-13T00:09:28;7.40;99.90
52413;DHT22;38339;53.234;6.578;2022-11-13T00:11:53;7.30;99.90
52413;DHT22;38339;53.234;6.578;2022-11-13T00:14:19;7.30;99.90
52413;DHT22;38339;53.234;6.578;2022-11-13T00:16:44;7.30;99.90
52413;DHT22;38339;53.234;6.578;2022-11-13T00:19:10;7.40;99.90
52413;DHT22;38339;53.234;6.578;2022-11-13T00:21:36;7.30;99.90
52413;DHT22;38339;53.234;6.578;2022-11-13T00:24:01;7.30;99.90
52413;DHT22;38339;53.234;6.578;2022-11-13T00:26:29;7.30;99.90
52413;DHT22;38339;53.234;6.578;2022-11-13T00:28:57;7.30;99.90
52413;DHT22;38339;53.234;6.578;2022-11-13T00:31:24;7.40;99.90
52413;DHT22;38339;53.234;6.578;2022-11-13T00:33:50;7.40;99.90
52413;DHT22;38339;53.234;6.578;2022-11-13T00:36:21;7.40;99.90
52413;DHT22;38339;53.234;6.578;2022-11-13T00:38:47;7.50;99.90
52413;DHT22;38339;53.234;6.578;2022-11-13T00:41:13;7.50;99.90
52413;DHT22;38339;53.234;6.578;2022-11-13T00:43:39;7.50;99.90
52413;DHT22;38339;53.234;6.578;2022-11-13T00:46:05;7.50;99.90
52413;DHT22;38339;53.234;6.578;2022-11-13T00:48:32;7.50;99.90
52413;DHT22;38339;53.234;6.578;2022-11-13T00:50:58;7.50;99.90
52413;DHT22;38339;53.234;6.578;2022-11-13T00:53:24;7.60;99.90
52413;DHT22;38339;53.234;6.578;2022-11-13T00:55:50;7.50;99.90
52413;DHT22;38339;53.234;6.578;2022-11-13T00:58:16;7.60;99.90
52413;DHT22;38339;53.234;6.578;2022-11-13T01:00:44;7.60;99.90
52413;DHT22;38339;53.234;6.578;2022-11-13T01:03:11;7.60;99.90
52413;DHT22;38339;53.234;6.578;2022-11-13T01:05:41;7.60;99.90
52413;DHT22;38339;53.234;6.578;2022-11-13T01:08:08;7.60;99.90
52413;DHT22;38339;53.234;6.578;2022-11-13T01:10:40;7.60;99.90
52413;DHT22;38339;53.234;6.578;2022-11-13T01:13:06;7.70;99.90
52413;DHT22;38339;53.234;6.578;2022-11-13T01:15:31;7.60;99.90
52413;DHT22;38339;53.234;6.578;2022-11-13T01:17:57;7.60;99.90
52413;DHT22;38339;53.234;6.578;2022-11-13T01:20:24;7.60;99.90
52413;DHT22;38339;53.234;6.578;2022-11-13T01:22:50;7.60;99.90
52413;DHT22;38339;53.234;6.578;2022-11-13T01:25:16;7.70;99.90
52413;DHT22;38339;53.234;6.578;2022-11-13T01:27:43;7.60;99.90
52413;DHT22;38339;53.234;6.578;2022-11-13T01:30:09;7.70;99.90
52413;DHT22;38339;53.234;6.578;2022-11-13T01:32:35;7.70;99.90
52413;DHT22;38339;53.234;6.578;2022-11-13T01:35:00;7.70;99.90
52413;DHT22;38339;53.234;6.578;2022-11-13T01:37:26;7.70;99.90
52413;DHT22;38339;53.234;6.578;2022-11-13T01:39:52;7.70;99.90
52413;DHT22;38339;53.234;6.578;2022-11-13T01:42:18;7.70;99.90
52413;DHT22;38339;53.234;6.578;2022-11-13T01:47:11;7.70;99.90
52413;DHT22;38339;53.234;6.578;2022-11-13T01:49:39;7.70;99.90
52413;DHT22;38339;53.234;6.578;2022-11-13T01:52:18;7.70;99.90
52413;DHT22;38339;53.234;6.578;2022-11-13T01:54:50;7.80;99.90
52413;DHT22;38339;53.234;6.578;2022-11-13T01:57:16;7.70;99.90
52413;DHT22;38339;53.234;6.578;2022-11-13T01:59:49;7.70;99.90
52413;DHT22;38339;53.234;6.578;2022-11-13T02:02:16;7.80;99.90
52413;DHT22;38339;53.234;6.578;2022-11-13T02:04:41;7.70;99.90
52413;DHT22;38339;53.234;6.578;2022-11-13T02:07:13;7.70;99.90
52413;DHT22;38339;53.234;6.578;2022-11-13T02:09:42;7.80;99.90
52413;DHT22;38339;53.234;6.578;2022-11-13T02:12:12;7.70;99.90
52413;DHT22;38339;53.234;6.578;2022-11-13T02:14:42;7.80;99.90
52413;DHT22;38339;53.234;6.578;2022-11-13T02:17:12;7.80;99.90
52413;DHT22;38339;53.234;6.578;2022-11-13T02:19:42;7.80;99.90
52413;DHT22;38339;53.234;6.578;2022-11-13T02:24:43;7.80;99.90
52413;DHT22;38339;53.234;6.578;2022-11-13T02:27:17;7.80;99.90
52413;DHT22;38339;53.234;6.578;2022-11-13T02:29:44;7.80;99.90
52413;DHT22;38339;53.234;6.578;2022-11-13T02:32:10;7.70;99.90
52413;DHT22;38339;53.234;6.578;2022-11-13T02:34:35;7.80;99.90
52413;DHT22;38339;53.234;6.578;2022-11-13T02:37:01;7.80;99.90
52413;DHT22;38339;53.234;6.578;2022-11-13T02:39:26;7.80;99.90
52413;DHT22;38339;53.234;6.578;2022-11-13T02:41:53;7.80;99.90
52413;DHT22;38339;53.234;6.578;2022-11-13T02:44:18;7.90;99.90
52413;DHT22;38339;53.234;6.578;2022-11-13T02:46:44;7.90;99.90
52413;DHT22;38339;53.234;6.578;2022-11-13T02:49:10;7.90;99.90
52413;DHT22;38339;53.234;6.578;2022-11-13T02:51:35;7.90;99.90
52413;DHT22;38339;53.234;6.578;2022-11-13T02:54:01;7.90;99.90
52413;DHT22;38339;53.234;6.578;2022-11-13T02:56:27;7.90;99.90
52413;DHT22;38339;53.234;6.578;2022-11-13T02:58:52;7.90;99.90
52413;DHT22;38339;53.234;6.578;2022-11-13T03:01:18;7.90;99.90
52413;DHT22;38339;53.234;6.578;2022-11-13T03:03:44;7.80;99.90
52413;DHT22;38339;53.234;6.578;2022-11-13T03:06:09;7.90;99.90
52413;DHT22;38339;53.234;6.578;2022-11-13T03:08:35;8.00;99.90
52413;DHT22;38339;53.234;6.578;2022-11-13T03:11:09;7.80;99.90
52413;DHT22;38339;53.234;6.578;2022-11-13T03:13:35;7.70;99.90
52413;DHT22;38339;53.234;6.578;2022-11-13T03:16:19;7.70;99.90
52413;DHT22;38339;53.234;6.578;2022-11-13T03:18:45;7.70;99.90
52413;DHT22;38339;53.234;6.578;2022-11-13T03:21:13;7.60;99.90
52413;DHT22;38339;53.234;6.578;2022-11-13T03:23:40;7.70;99.90
52413;DHT22;38339;53.234;6.578;2022-11-13T03:26:11;7.60;99.90
52413;DHT22;38339;53.234;6.578;2022-11-13T03:28:37;7.70;99.90
52413;DHT22;38339;53.234;6.578;2022-11-13T03:31:03;7.60;99.90
52413;DHT22;38339;53.234;6.578;2022-11-13T03:33:29;7.60;99.90
52413;DHT22;38339;53.234;6.578;2022-11-13T03:35:55;7.60;99.90
52413;DHT22;38339;53.234;6.578;2022-11-13T03:38:21;7.60;99.90
52413;DHT22;38339;53.234;6.578;2022-11-13T03:40:47;7.60;99.90
52413;DHT22;38339;53.234;6.578;2022-11-13T03:43:13;8.00;99.90
52413;DHT22;38339;53.234;6.578;2022-11-13T03:45:39;7.60;99.90
52413;DHT22;38339;53.234;6.578;2022-11-13T03:48:05;7.60;99.90
52413;DHT22;38339;53.234;6.578;2022-11-13T03:50:31;7.60;99.90
52413;DHT22;38339;53.234;6.578;2022-11-13T03:52:56;7.60;99.90
52413;DHT22;38339;53.234;6.578;2022-11-13T03:55:22;7.60;99.90
52413;DHT22;38339;53.234;6.578;2022-11-13T03:57:48;7.70;99.90
52413;DHT22;38339;53.234;6.578;2022-11-13T04:00:14;7.60;99.90
52413;DHT22;38339;53.234;6.578;2022-11-13T04:02:40;7.60;99.90
52413;DHT22;38339;53.234;6.578;2022-11-13T04:05:06;7.60;99.90
52413;DHT22;38339;53.234;6.578;2022-11-13T04:07:32;7.60;99.90
52413;DHT22;38339;53.234;6.578;2022-11-13T04:09:58;7.60;99.90
52413;DHT22;38339;53.234;6.578;2022-11-13T04:12:23;7.60;99.90
52413;DHT22;38339;53.234;6.578;2022-11-13T04:14:49;7.60;99.90
52413;DHT22;38339;53.234;6.578;2022-11-13T04:17:15;7.70;99.90
52413;DHT22;38339;53.234;6.578;2022-11-13T04:19:40;7.70;99.90
52413;DHT22;38339;53.234;6.578;2022-11-13T04:22:06;7.70;99.90
52413;DHT22;38339;53.234;6.578;2022-11-13T04:24:32;7.70;99.90
52413;DHT22;38339;53.234;6.578;2022-11-13T04:26:57;7.70;99.90
52413;DHT22;38339;53.234;6.578;2022-11-13T04:29:24;7.70;99.90
52413;DHT22;38339;53.234;6.578;2022-11-13T04:31:50;7.70;99.90
52413;DHT22;38339;53.234;6.578;2022-11-13T04:34:16;7.70;99.90
52413;DHT22;38339;53.234;6.578;2022-11-13T04:36:41;7.70;99.90
52413;DHT22;38339;53.234;6.578;2022-11-13T04:39:08;7.80;99.90
52413;DHT22;38339;53.234;6.578;2022-11-13T04:41:33;7.80;99.90
52413;DHT22;38339;53.234;6.578;2022-11-13T04:44:17;7.80;99.90
52413;DHT22;38339;53.234;6.578;2022-11-13T04:46:43;7.80;99.90
52413;DHT22;38339;53.234;6.578;2022-11-13T04:49:09;7.90;99.90
52413;DHT22;38339;53.234;6.578;2022-11-13T04:51:34;7.80;99.90
52413;DHT22;38339;53.234;6.578;2022-11-13T04:54:00;7.80;99.90
52413;DHT22;38339;53.234;6.578;2022-11-13T04:56:25;7.80;99.90
52413;DHT22;38339;53.234;6.578;2022-11-13T04:58:51;7.80;99.90
52413;DHT22;38339;53.234;6.578;2022-11-13T05:01:17;7.80;99.90
52413;DHT22;38339;53.234;6.578;2022-11-13T05:03:43;7.70;99.90
52413;DHT22;38339;53.234;6.578;2022-11-13T05:06:09;7.80;99.90
52413;DHT22;38339;53.234;6.578;2022-11-13T05:08:35;7.80;99.90
52413;DHT22;38339;53.234;6.578;2022-11-13T05:11:01;7.70;99.90
52413;DHT22;38339;53.234;6.578;2022-11-13T05:13:32;7.80;99.90
52413;DHT22;38339;53.234;6.578;2022-11-13T05:16:00;7.70;99.90
52413;DHT22;38339;53.234;6.578;2022-11-13T05:18:26;7.70;99.90
52413;DHT22;38339;53.234;6.578;2022-11-13T05:20:51;7.70;99.90
52413;DHT22;38339;53.234;6.578;2022-11-13T05:23:17;7.60;99.90
52413;DHT22;38339;53.234;6.578;2022-11-13T05:25:42;7.60;99.90
52413;DHT22;38339;53.234;6.578;2022-11-13T05:28:08;7.60;99.90
52413;DHT22;38339;53.234;6.578;2022-11-13T05:30:34;7.60;99.90
52413;DHT22;38339;53.234;6.578;2022-11-13T05:32:59;7.60;99.90
52413;DHT22;38339;53.234;6.578;2022-11-13T05:35:25;7.70;99.90
52413;DHT22;38339;53.234;6.578;2022-11-13T05:37:51;7.60;99.90
52413;DHT22;38339;53.234;6.578;2022-11-13T05:40:16;7.60;99.90
52413;DHT22;38339;53.234;6.578;2022-11-13T05:42:42;7.50;99.90
52413;DHT22;38339;53.234;6.578;2022-11-13T05:45:08;7.50;99.90
52413;DHT22;38339;53.234;6.578;2022-11-13T05:47:34;7.50;99.90
52413;DHT22;38339;53.234;6.578;2022-11-13T05:50:03;7.50;99.90
52413;DHT22;38339;53.234;6.578;2022-11-13T05:52:28;7.50;99.90
52413;DHT22;38339;53.234;6.578;2022-11-13T05:54:54;7.50;99.90
52413;DHT22;38339;53.234;6.578;2022-11-13T05:57:20;7.40;99.90
52413;DHT22;38339;53.234;6.578;2022-11-13T05:59:45;7.40;99.90
52413;DHT22;38339;53.234;6.578;2022-11-13T06:02:11;7.40;99.90
52413;DHT22;38339;53.234;6.578;2022-11-13T06:04:38;7.40;99.90
52413;DHT22;38339;53.234;6.578;2022-11-13T06:07:04;7.30;99.90
52413;DHT22;38339;53.234;6.578;2022-11-13T06:09:29;7.40;99.90
52413;DHT22;38339;53.234;6.578;2022-11-13T06:11:55;7.30;99.90
52413;DHT22;38339;53.234;6.578;2022-11-13T06:14:20;7.20;99.90
52413;DHT22;38339;53.234;6.578;2022-11-13T06:16:46;7.20;99.90
52413;DHT22;38339;53.234;6.578;2022-11-13T06:19:12;7.30;99.90
52413;DHT22;38339;53.234;6.578;2022-11-13T06:21:38;7.10;99.90
52413;DHT22;38339;53.234;6.578;2022-11-13T06:24:05;7.10;99.90
52413;DHT22;38339;53.234;6.578;2022-11-13T06:26:33;7.10;99.90
52413;DHT22;38339;53.234;6.578;2022-11-13T06:29:00;7.00;99.90
52413;DHT22;38339;53.234;6.578;2022-11-13T06:31:32;7.00;99.90
52413;DHT22;38339;53.234;6.578;2022-11-13T06:33:58;7.00;99.90
52413;DHT22;38339;53.234;6.578;2022-11-13T06:36:27;7.00;99.90
52413;DHT22;38339;53.234;6.578;2022-11-13T06:38:53;7.00;99.90
52413;DHT22;38339;53.234;6.578;2022-11-13T06:41:26;7.00;99.90
52413;DHT22;38339;53.234;6.578;2022-11-13T06:43:54;7.00;99.90
52413;DHT22;38339;53.234;6.578;2022-11-13T06:46:22;7.00;99.90
52413;DHT22;38339;53.234;6.578;2022-11-13T06:48:48;6.90;99.90
52413;DHT22;38339;53.234;6.578;2022-11-13T06:51:19;7.00;99.90
52413;DHT22;38339;53.234;6.578;2022-11-13T06:53:45;6.90;99.90
52413;DHT22;38339;53.234;6.578;2022-11-13T06:56:12;6.90;99.90
52413;DHT22;38339;53.234;6.578;2022-11-13T06:58:38;6.90;99.90
52413;DHT22;38339;53.234;6.578;2022-11-13T07:01:41;6.90;99.90
52413;DHT22;38339;53.234;6.578;2022-11-13T07:03:59;6.90;99.90
52413;DHT22;38339;53.234;6.578;2022-11-13T07:06:25;6.80;99.90
52413;DHT22;38339;53.234;6.578;2022-11-13T07:08:51;6.80;99.90
52413;DHT22;38339;53.234;6.578;2022-11-13T07:11:19;6.80;99.90
52413;DHT22;38339;53.234;6.578;2022-11-13T07:13:45;6.80;99.90
52413;DHT22;38339;53.234;6.578;2022-11-13T07:16:12;6.80;99.90
52413;DHT22;38339;53.234;6.578;2022-11-13T07:18:38;6.80;99.90
52413;DHT22;38339;53.234;6.578;2022-11-13T07:21:09;6.70;99.90
52413;DHT22;38339;53.234;6.578;2022-11-13T07:23:36;6.70;99.90
52413;DHT22;38339;53.234;6.578;2022-11-13T07:26:08;6.70;99.90
52413;DHT22;38339;53.234;6.578;2022-11-13T07:28:33;6.70;99.90
52413;DHT22;38339;53.234;6.578;2022-11-13T07:30:59;6.70;99.90
52413;DHT22;38339;53.234;6.578;2022-11-13T07:33:25;6.70;99.90
52413;DHT22;38339;53.234;6.578;2022-11-13T07:35:55;6.70;99.90
52413;DHT22;38339;53.234;6.578;2022-11-13T07:38:21;6.80;99.90
52413;DHT22;38339;53.234;6.578;2022-11-13T07:40:46;6.70;99.90
52413;DHT22;38339;53.234;6.578;2022-11-13T07:43:12;6.70;99.90
52413;DHT22;38339;53.234;6.578;2022-11-13T07:45:38;6.80;99.90
52413;DHT22;38339;53.234;6.578;2022-11-13T07:48:04;6.70;99.90
52413;DHT22;38339;53.234;6.578;2022-11-13T07:50:35;6.80;99.90
52413;DHT22;38339;53.234;6.578;2022-11-13T07:53:03;6.80;99.90
52413;DHT22;38339;53.234;6.578;2022-11-13T07:55:30;6.80;99.90
52413;DHT22;38339;53.234;6.578;2022-11-13T07:57:56;6.80;99.90
52413;DHT22;38339;53.234;6.578;2022-11-13T08:00:26;6.90;99.90
52413;DHT22;38339;53.234;6.578;2022-11-13T08:02:53;6.90;99.90
52413;DHT22;38339;53.234;6.578;2022-11-13T08:05:19;6.90;99.90
52413;DHT22;38339;53.234;6.578;2022-11-13T08:07:46;7.00;99.90
52413;DHT22;38339;53.234;6.578;2022-11-13T08:10:13;7.00;99.90
52413;DHT22;38339;53.234;6.578;2022-11-13T08:12:39;7.00;99.90
52413;DHT22;38339;53.234;6.578;2022-11-13T08:15:05;7.10;99.90
52413;DHT22;38339;53.234;6.578;2022-11-13T08:17:30;7.10;99.90
52413;DHT22;38339;53.234;6.578;2022-11-13T08:19:56;7.10;99.90
52413;DHT22;38339;53.234;6.578;2022-11-13T08:22:23;7.20;99.90
52413;DHT22;38339;53.234;6.578;2022-11-13T08:24:49;7.20;99.90
52413;DHT22;38339;53.234;6.578;2022-11-13T08:27:19;7.30;99.90
52413;DHT22;38339;53.234;6.578;2022-11-13T08:29:44;7.30;99.90
52413;DHT22;38339;53.234;6.578;2022-11-13T08:32:14;7.30;99.90
52413;DHT22;38339;53.234;6.578;2022-11-13T08:34:39;7.40;99.90
52413;DHT22;38339;53.234;6.578;2022-11-13T08:37:05;7.40;99.90
52413;DHT22;38339;53.234;6.578;2022-11-13T08:39:31;7.50;99.90
52413;DHT22;38339;53.234;6.578;2022-11-13T08:41:59;7.50;99.90
52413;DHT22;38339;53.234;6.578;2022-11-13T08:44:25;7.60;99.90
52413;DHT22;38339;53.234;6.578;2022-11-13T08:46:51;7.70;99.90
52413;DHT22;38339;53.234;6.578;2022-11-13T08:49:16;7.70;99.90
52413;DHT22;38339;53.234;6.578;2022-11-13T08:51:42;7.80;99.90
52413;DHT22;38339;53.234;6.578;2022-11-13T08:54:08;7.80;99.90
52413;DHT22;38339;53.234;6.578;2022-11-13T08:56:33;7.90;99.90
52413;DHT22;38339;53.234;6.578;2022-11-13T08:58:59;8.00;99.90
52413;DHT22;38339;53.234;6.578;2022-11-13T09:01:25;8.00;99.90
52413;DHT22;38339;53.234;6.578;2022-11-13T09:03:50;8.10;99.90
52413;DHT22;38339;53.234;6.578;2022-11-13T09:06:16;8.10;99.90
52413;DHT22;38339;53.234;6.578;2022-11-13T09:08:42;8.20;99.90
52413;DHT22;38339;53.234;6.578;2022-11-13T09:11:08;8.30;99.90
52413;DHT22;38339;53.234;6.578;2022-11-13T09:13:34;8.30;99.90
52413;DHT22;38339;53.234;6.578;2022-11-13T09:16:01;8.40;99.90
52413;DHT22;38339;53.234;6.578;2022-11-13T09:18:27;8.40;99.90
52413;DHT22;38339;53.234;6.578;2022-11-13T09:20:53;8.50;99.90
52413;DHT22;38339;53.234;6.578;2022-11-13T09:23:19;8.50;99.90
52413;DHT22;38339;53.234;6.578;2022-11-13T09:25:45;8.60;99.90
52413;DHT22;38339;53.234;6.578;2022-11-13T09:28:11;8.70;99.90
52413;DHT22;38339;53.234;6.578;2022-11-13T09:30:39;8.80;99.90
52413;DHT22;38339;53.234;6.578;2022-11-13T09:33:05;8.80;99.90
52413;DHT22;38339;53.234;6.578;2022-11-13T09:35:31;8.80;99.90
52413;DHT22;38339;53.234;6.578;2022-11-13T09:38:04;8.90;99.90
52413;DHT22;38339;53.234;6.578;2022-11-13T09:43:30;9.00;99.90
52413;DHT22;38339;53.234;6.578;2022-11-13T09:48:48;9.20;99.90
52413;DHT22;38339;53.234;6.578;2022-11-13T09:51:23;9.30;99.90
52413;DHT22;38339;53.234;6.578;2022-11-13T09:53:50;9.30;99.90
52413;DHT22;38339;53.234;6.578;2022-11-13T09:59:13;9.40;99.90
52413;DHT22;38339;53.234;6.578;2022-11-13T10:02:22;9.50;99.90
52413;DHT22;38339;53.234;6.578;2022-11-13T10:05:03;9.50;99.90
52413;DHT22;38339;53.234;6.578;2022-11-13T10:13:13;9.70;99.90
52413;DHT22;38339;53.234;6.578;2022-11-13T10:15:42;9.80;99.90
52413;DHT22;38339;53.234;6.578;2022-11-13T10:18:22;9.90;99.90
52413;DHT22;38339;53.234;6.578;2022-11-13T10:20:53;9.90;99.90
52413;DHT22;38339;53.234;6.578;2022-11-13T10:23:28;10.00;99.90
52413;DHT22;38339;53.234;6.578;2022-11-13T10:25:56;10.00;99.90
52413;DHT22;38339;53.234;6.578;2022-11-13T10:28:26;10.10;99.90
52413;DHT22;38339;53.234;6.578;2022-11-13T10:30:52;10.20;99.90
52413;DHT22;38339;53.234;6.578;2022-11-13T10:33:20;10.20;99.90
52413;DHT22;38339;53.234;6.578;2022-11-13T10:36:01;10.30;99.90
52413;DHT22;38339;53.234;6.578;2022-11-13T10:41:06;10.40;99.90
52413;DHT22;38339;53.234;6.578;2022-11-13T10:43:33;10.50;99.90
52413;DHT22;38339;53.234;6.578;2022-11-13T10:46:04;10.40;99.90
52413;DHT22;38339;53.234;6.578;2022-11-13T10:48:35;10.50;99.90
52413;DHT22;38339;53.234;6.578;2022-11-13T10:51:19;10.60;99.90
52413;DHT22;38339;53.234;6.578;2022-11-13T10:53:46;10.60;99.90
52413;DHT22;38339;53.234;6.578;2022-11-13T10:56:33;10.70;99.90
52413;DHT22;38339;53.234;6.578;2022-11-13T10:59:09;10.70;99.90
52413;DHT22;38339;53.234;6.578;2022-11-13T11:01:35;10.70;99.90
52413;DHT22;38339;53.234;6.578;2022-11-13T11:04:22;10.80;99.90
52413;DHT22;38339;53.234;6.578;2022-11-13T11:06:49;10.80;99.90
52413;DHT22;38339;53.234;6.578;2022-11-13T11:09:29;10.80;99.90
52413;DHT22;38339;53.234;6.578;2022-11-13T11:12:16;10.70;99.90
52413;DHT22;38339;53.234;6.578;2022-11-13T11:22:46;10.70;99.90
52413;DHT22;38339;53.234;6.578;2022-11-13T11:25:17;10.70;99.90
52413;DHT22;38339;53.234;6.578;2022-11-13T11:27:51;10.70;99.90
52413;DHT22;38339;53.234;6.578;2022-11-13T11:30:24;10.70;99.90
52413;DHT22;38339;53.234;6.578;2022-11-13T11:33:08;10.70;99.90
52413;DHT22;38339;53.234;6.578;2022-11-13T11:35:51;10.80;99.90
52413;DHT22;38339;53.234;6.578;2022-11-13T11:40:52;10.80;99.90
52413;DHT22;38339;53.234;6.578;2022-11-13T11:45:58;10.70;99.90
52413;DHT22;38339;53.234;6.578;2022-11-13T11:48:29;10.80;99.90
52413;DHT22;38339;53.234;6.578;2022-11-13T11:56:39;10.90;99.90
52413;DHT22;38339;53.234;6.578;2022-11-13T12:13:20;11.40;99.90
52413;DHT22;38339;53.234;6.578;2022-11-13T12:16:28;11.40;99.90
52413;DHT22;38339;53.234;6.578;2022-11-13T12:19:10;11.60;99.90
52413;DHT22;38339;53.234;6.578;2022-11-13T12:32:02;11.90;99.90
52413;DHT22;38339;53.234;6.578;2022-11-13T12:34:44;11.90;99.90
52413;DHT22;38339;53.234;6.578;2022-11-13T12:37:16;12.00;99.90
52413;DHT22;38339;53.234;6.578;2022-11-13T12:39:54;12.00;99.90
52413;DHT22;38339;53.234;6.578;2022-11-13T12:42:33;12.10;99.90
52413;DHT22;38339;53.234;6.578;2022-11-13T12:47:34;12.10;99.90
52413;DHT22;38339;53.234;6.578;2022-11-13T12:53:07;12.10;99.90
52413;DHT22;38339;53.234;6.578;2022-11-13T12:55:36;12.20;99.90
52413;DHT22;38339;53.234;6.578;2022-11-13T12:58:23;12.10;99.90
52413;DHT22;38339;53.234;6.578;2022-11-13T13:06:28;12.20;99.90
52413;DHT22;38339;53.234;6.578;2022-11-13T13:15:25;12.20;99.90
52413;DHT22;38339;53.234;6.578;2022-11-13T13:18:04;12.20;99.90
52413;DHT22;38339;53.234;6.578;2022-11-13T13:20:37;12.20;99.90
52413;DHT22;38339;53.234;6.578;2022-11-13T13:23:03;12.10;99.90
52413;DHT22;38339;53.234;6.578;2022-11-13T13:25:34;12.10;99.90
52413;DHT22;38339;53.234;6.578;2022-11-13T13:28:01;12.10;99.90
52413;DHT22;38339;53.234;6.578;2022-11-13T13:30:28;12.10;99.90
52413;DHT22;38339;53.234;6.578;2022-11-13T13:33:21;12.10;99.90
52413;DHT22;38339;53.234;6.578;2022-11-13T13:39:07;12.10;99.90
52413;DHT22;38339;53.234;6.578;2022-11-13T13:42:14;12.10;99.90
52413;DHT22;38339;53.234;6.578;2022-11-13T13:47:46;12.10;99.90
52413;DHT22;38339;53.234;6.578;2022-11-13T13:50:23;12.10;99.90
52413;DHT22;38339;53.234;6.578;2022-11-13T13:52:50;12.10;99.90
52413;DHT22;38339;53.234;6.578;2022-11-13T13:55:30;12.10;99.90
52413;DHT22;38339;53.234;6.578;2022-11-13T13:58:02;12.20;99.90
52413;DHT22;38339;53.234;6.578;2022-11-13T14:00:29;12.20;99.90
52413;DHT22;38339;53.234;6.578;2022-11-13T14:02:55;12.30;99.90
52413;DHT22;38339;53.234;6.578;2022-11-13T14:05:34;12.30;99.90
52413;DHT22;38339;53.234;6.578;2022-11-13T14:08:00;12.30;99.90
52413;DHT22;38339;53.234;6.578;2022-11-13T14:10:34;12.30;99.90
52413;DHT22;38339;53.234;6.578;2022-11-13T14:13:01;12.30;99.90
52413;DHT22;38339;53.234;6.578;2022-11-13T14:15:29;12.40;99.90
52413;DHT22;38339;53.234;6.578;2022-11-13T14:18:14;12.30;99.90
52413;DHT22;38339;53.234;6.578;2022-11-13T14:23:18;12.30;99.90
52413;DHT22;38339;53.234;6.578;2022-11-13T14:25:45;12.20;99.90
52413;DHT22;38339;53.234;6.578;2022-11-13T14:28:18;12.10;99.90
52413;DHT22;38339;53.234;6.578;2022-11-13T14:30:52;12.10;99.90
52413;DHT22;38339;53.234;6.578;2022-11-13T14:33:22;12.00;99.90
52413;DHT22;38339;53.234;6.578;2022-11-13T14:35:54;12.00;99.90
52413;DHT22;38339;53.234;6.578;2022-11-13T14:38:23;11.90;99.90
52413;DHT22;38339;53.234;6.578;2022-11-13T14:40:50;11.80;99.90
52413;DHT22;38339;53.234;6.578;2022-11-13T14:43:22;11.80;99.90
52413;DHT22;38339;53.234;6.578;2022-11-13T14:45:57;11.80;99.90
52413;DHT22;38339;53.234;6.578;2022-11-13T14:48:29;11.70;99.90
52413;DHT22;38339;53.234;6.578;2022-11-13T14:51:00;11.70;99.90
52413;DHT22;38339;53.234;6.578;2022-11-13T14:53:37;11.60;99.90
52413;DHT22;38339;53.234;6.578;2022-11-13T14:56:09;11.60;99.90
52413;DHT22;38339;53.234;6.578;2022-11-13T14:58:44;11.60;99.90
52413;DHT22;38339;53.234;6.578;2022-11-13T15:01:21;11.50;99.90
52413;DHT22;38339;53.234;6.578;2022-11-13T15:03:48;11.50;99.90
52413;DHT22;38339;53.234;6.578;2022-11-13T15:06:19;11.40;99.90
52413;DHT22;38339;53.234;6.578;2022-11-13T15:08:46;11.40;99.90
52413;DHT22;38339;53.234;6.578;2022-11-13T15:11:13;11.40;99.90
52413;DHT22;38339;53.234;6.578;2022-11-13T15:13:39;11.30;99.90
52413;DHT22;38339;53.234;6.578;2022-11-13T15:16:05;11.20;99.90
52413;DHT22;38339;53.234;6.578;2022-11-13T15:18:31;11.20;99.90
52413;DHT22;38339;53.234;6.578;2022-11-13T15:20:57;11.10;99.90
52413;DHT22;38339;53.234;6.578;2022-11-13T15:23:24;11.10;99.90
52413;DHT22;38339;53.234;6.578;2022-11-13T15:25:51;11.00;99.90
52413;DHT22;38339;53.234;6.578;2022-11-13T15:28:16;11.00;99.90
52413;DHT22;38339;53.234;6.578;2022-11-13T15:30:42;10.90;99.90
52413;DHT22;38339;53.234;6.578;2022-11-13T15:33:15;10.90;99.90
52413;DHT22;38339;53.234;6.578;2022-11-13T15:35:41;10.80;99.90
52413;DHT22;38339;53.234;6.578;2022-11-13T15:38:10;10.80;99.90
52413;DHT22;38339;53.234;6.578;2022-11-13T15:40:37;10.70;99.90
52413;DHT22;38339;53.234;6.578;2022-11-13T15:43:04;10.60;99.90
52413;DHT22;38339;53.234;6.578;2022-11-13T15:45:30;10.60;99.90
52413;DHT22;38339;53.234;6.578;2022-11-13T15:47:56;10.50;99.90
52413;DHT22;38339;53.234;6.578;2022-11-13T15:50:21;10.50;99.90
52413;DHT22;38339;53.234;6.578;2022-11-13T15:52:49;10.50;99.90
52413;DHT22;38339;53.234;6.578;2022-11-13T15:55:26;10.40;99.90
52413;DHT22;38339;53.234;6.578;2022-11-13T15:57:53;10.40;99.90
52413;DHT22;38339;53.234;6.578;2022-11-13T16:00:22;10.30;99.90
52413;DHT22;38339;53.234;6.578;2022-11-13T16:02:55;10.30;99.90
52413;DHT22;38339;53.234;6.578;2022-11-13T16:05:23;10.20;99.90
52413;DHT22;38339;53.234;6.578;2022-11-13T16:07:52;10.20;99.90
52413;DHT22;38339;53.234;6.578;2022-11-13T16:10:20;10.20;99.90
52413;DHT22;38339;53.234;6.578;2022-11-13T16:12:46;10.10;99.90
52413;DHT22;38339;53.234;6.578;2022-11-13T16:15:15;10.00;99.90
52413;DHT22;38339;53.234;6.578;2022-11-13T16:17:45;10.00;99.90
52413;DHT22;38339;53.234;6.578;2022-11-13T16:20:13;9.90;99.90
52413;DHT22;38339;53.234;6.578;2022-11-13T16:22:41;9.90;99.90
52413;DHT22;38339;53.234;6.578;2022-11-13T16:25:13;9.80;99.90
52413;DHT22;38339;53.234;6.578;2022-11-13T16:27:39;9.80;99.90
52413;DHT22;38339;53.234;6.578;2022-11-13T16:30:11;9.70;99.90
52413;DHT22;38339;53.234;6.578;2022-11-13T16:32:37;9.70;99.90
52413;DHT22;38339;53.234;6.578;2022-11-13T16:35:03;9.70;99.90
52413;DHT22;38339;53.234;6.578;2022-11-13T16:37:29;9.60;99.90
52413;DHT22;38339;53.234;6.578;2022-11-13T16:39:54;9.60;99.90
52413;DHT22;38339;53.234;6.578;2022-11-13T16:42:20;9.50;99.90
52413;DHT22;38339;53.234;6.578;2022-11-13T16:44:46;9.60;99.90
52413;DHT22;38339;53.234;6.578;2022-11-13T16:47:23;9.50;99.90
52413;DHT22;38339;53.234;6.578;2022-11-13T16:49:49;9.50;99.90
52413;DHT22;38339;53.234;6.578;2022-11-13T16:52:15;9.90;99.90
52413;DHT22;38339;53.234;6.578;2022-11-13T16:54:41;9.50;99.90
52413;DHT22;38339;53.234;6.578;2022-11-13T16:57:11;9.40;99.90
52413;DHT22;38339;53.234;6.578;2022-11-13T16:59:37;9.30;99.90
52413;DHT22;38339;53.234;6.578;2022-11-13T17:02:14;9.30;99.90
52413;DHT22;38339;53.234;6.578;2022-11-13T17:04:41;9.30;99.90
52413;DHT22;38339;53.234;6.578;2022-11-13T17:07:11;9.30;99.90
52413;DHT22;38339;53.234;6.578;2022-11-13T17:09:41;9.30;99.90
52413;DHT22;38339;53.234;6.578;2022-11-13T17:12:09;9.20;99.90
52413;DHT22;38339;53.234;6.578;2022-11-13T17:14:35;9.20;99.90
52413;DHT22;38339;53.234;6.578;2022-11-13T17:17:03;9.50;99.90
52413;DHT22;38339;53.234;6.578;2022-11-13T17:19:31;9.10;99.90
52413;DHT22;38339;53.234;6.578;2022-11-13T17:21:57;9.10;99.90
52413;DHT22;38339;53.234;6.578;2022-11-13T17:24:22;9.10;99.90